createdAt,value
2022-10-31T00:02:56.415Z,11.97
2022-10-31T00:05:59.248Z,11.91
2022-10-31T00:09:04.296Z,11.86
2022-10-31T00:12:07.151Z,11.79
2022-10-31T00:15:09.723Z,11.70
2022-10-31T00:18:12.663Z,11.81
2022-10-31T00:21:15.849Z,11.76
2022-10-31T00:24:18.526Z,11.69
2022-10-31T00:27:21.002Z,11.80
2022-10-31T00:30:24.178Z,11.76
2022-10-31T00:33:27.229Z,11.81
2022-10-31T00:36:30.065Z,11.80
2022-10-31T00:39:32.560Z,11.79
2022-10-31T00:42:35.311Z,11.83
2022-10-31T00:45:37.827Z,11.95
2022-10-31T00:48:40.875Z,11.91
2022-10-31T00:51:43.485Z,11.80
2022-10-31T00:54:46.202Z,11.77
2022-10-31T00:57:48.911Z,11.77
2022-10-31T01:00:57.781Z,11.75
2022-10-31T01:04:00.497Z,11.72
2022-10-31T01:07:03.214Z,11.74
2022-10-31T01:10:06.887Z,11.72
2022-10-31T01:13:09.693Z,11.76
2022-10-31T01:16:17.183Z,11.59
2022-10-31T01:19:20.905Z,11.53
2022-10-31T01:22:23.427Z,11.54
2022-10-31T01:25:26.654Z,11.46
2022-10-31T01:28:29.874Z,11.45
2022-10-31T01:31:36.414Z,11.53
2022-10-31T01:34:38.860Z,11.44
2022-10-31T01:37:41.605Z,11.47
2022-10-31T01:40:44.150Z,11.45
2022-10-31T01:43:49.174Z,11.58
2022-10-31T01:46:57.683Z,11.64
2022-10-31T01:50:03.883Z,11.60
2022-10-31T01:53:09.189Z,11.54
2022-10-31T01:56:13.061Z,11.57
2022-10-31T01:59:19.763Z,11.51
2022-10-31T02:02:22.600Z,11.50
2022-10-31T02:05:28.688Z,11.40
2022-10-31T02:08:33.543Z,11.36
2022-10-31T02:11:38.021Z,11.42
2022-10-31T02:14:41.581Z,11.36
2022-10-31T02:17:44.452Z,11.43
2022-10-31T02:21:07.459Z,11.40
2022-10-31T02:24:28.061Z,11.35
2022-10-31T02:28:02.457Z,11.37
2022-10-31T02:31:27.543Z,11.37
2022-10-31T02:34:41.530Z,11.38
2022-10-31T02:37:50.126Z,11.47
2022-10-31T02:41:06.034Z,11.43
2022-10-31T02:44:32.831Z,11.32
2022-10-31T02:47:38.273Z,11.23
2022-10-31T02:50:44.742Z,11.20
2022-10-31T02:53:47.281Z,11.33
2022-10-31T02:56:55.448Z,11.21
2022-10-31T03:00:05.609Z,11.18
2022-10-31T03:03:25.578Z,11.24
2022-10-31T03:06:40.244Z,11.22
2022-10-31T03:09:54.908Z,11.19
2022-10-31T03:13:16.058Z,11.21
2022-10-31T03:16:29.029Z,11.25
2022-10-31T03:19:38.171Z,11.21
2022-10-31T03:22:43.932Z,11.26
2022-10-31T03:25:48.113Z,11.27
2022-10-31T03:28:58.373Z,11.25
2022-10-31T03:32:18.494Z,11.26
2022-10-31T03:35:25.263Z,11.29
2022-10-31T03:38:29.150Z,11.24
2022-10-31T03:41:40.178Z,11.21
2022-10-31T03:44:48.131Z,11.23
2022-10-31T03:47:52.033Z,11.23
2022-10-31T03:51:14.087Z,11.32
2022-10-31T03:54:24.069Z,11.27
2022-10-31T03:57:49.185Z,11.25
2022-10-31T04:00:54.897Z,11.25
2022-10-31T04:03:59.357Z,11.27
2022-10-31T04:07:03.270Z,11.25
2022-10-31T04:10:09.325Z,11.26
2022-10-31T04:16:23.469Z,11.27
2022-10-31T04:19:26.329Z,11.29
2022-10-31T04:22:29.232Z,11.22
2022-10-31T04:25:31.982Z,11.23
2022-10-31T04:28:35.386Z,11.29
2022-10-31T04:31:38.115Z,11.23
2022-10-31T04:34:40.842Z,11.25
2022-10-31T04:37:43.327Z,11.20
2022-10-31T04:40:46.866Z,11.21
2022-10-31T04:43:50.805Z,11.18
2022-10-31T04:46:53.621Z,11.19
2022-10-31T04:49:56.015Z,11.18
2022-10-31T04:52:58.732Z,11.21
2022-10-31T04:56:01.995Z,11.25
2022-10-31T04:59:08.699Z,11.23
2022-10-31T05:02:12.344Z,11.24
2022-10-31T05:05:17.359Z,11.27
2022-10-31T05:08:19.981Z,11.29
2022-10-31T05:11:25.371Z,11.27
2022-10-31T05:14:30.489Z,11.30
2022-10-31T05:17:34.647Z,11.34
2022-10-31T05:20:38.745Z,11.32
2022-10-31T05:23:45.850Z,11.32
2022-10-31T05:26:51.087Z,11.37
2022-10-31T05:29:54.059Z,11.41
2022-10-31T05:32:57.310Z,11.35
2022-10-31T05:36:02.862Z,11.37
2022-10-31T05:39:05.913Z,11.34
2022-10-31T05:42:09.506Z,11.32
2022-10-31T05:45:17.909Z,11.34
2022-10-31T05:48:21.205Z,11.41
2022-10-31T05:51:28.258Z,11.41
2022-10-31T05:54:31.486Z,11.37
2022-10-31T05:57:34.899Z,11.42
2022-10-31T06:00:38.745Z,11.52
2022-10-31T06:03:41.960Z,11.55
2022-10-31T06:06:44.477Z,11.45
2022-10-31T06:09:47.204Z,11.55
2022-10-31T06:12:49.841Z,11.53
2022-10-31T06:15:53.046Z,11.52
2022-10-31T06:18:56.886Z,11.53
2022-10-31T06:21:59.642Z,11.54
2022-10-31T06:25:02.166Z,11.59
2022-10-31T06:28:05.451Z,11.61
2022-10-31T06:31:08.993Z,11.67
2022-10-31T06:34:12.062Z,11.79
2022-10-31T06:37:15.142Z,11.81
2022-10-31T06:40:18.275Z,11.72
2022-10-31T06:43:23.189Z,11.71
2022-10-31T06:46:26.184Z,11.65
2022-10-31T06:49:30.587Z,11.76
2022-10-31T06:52:34.419Z,11.83
2022-10-31T06:55:38.358Z,11.82
2022-10-31T06:58:42.004Z,11.82
2022-10-31T07:01:44.953Z,11.86
2022-10-31T07:04:47.859Z,11.92
2022-10-31T07:07:54.991Z,11.96
2022-10-31T07:10:58.354Z,11.88
2022-10-31T07:14:00.948Z,11.96
2022-10-31T07:17:03.772Z,12.04
2022-10-31T07:20:07.817Z,12.12
2022-10-31T07:23:11.936Z,12.09
2022-10-31T07:26:14.780Z,12.15
2022-10-31T07:29:18.039Z,12.26
2022-10-31T07:32:20.571Z,12.20
2022-10-31T07:35:28.201Z,12.20
2022-10-31T07:38:31.940Z,12.22
2022-10-31T07:41:38.087Z,12.20
2022-10-31T07:44:40.496Z,12.36
2022-10-31T07:47:56.705Z,12.25
2022-10-31T07:51:07.932Z,12.31
2022-10-31T07:54:12.384Z,12.25
2022-10-31T07:57:16.019Z,12.30
2022-10-31T08:00:19.343Z,12.27
2022-10-31T08:03:24.860Z,12.17
2022-10-31T08:06:29.852Z,12.04
2022-10-31T08:09:34.589Z,12.14
2022-10-31T08:12:37.414Z,12.32
2022-10-31T08:15:42.522Z,12.21
2022-10-31T08:18:46.070Z,12.09
2022-10-31T08:21:53.413Z,12.05
2022-10-31T08:24:56.051Z,12.15
2022-10-31T08:27:59.088Z,12.18
2022-10-31T08:31:01.746Z,12.25
2022-10-31T08:34:12.883Z,12.53
2022-10-31T08:37:20.913Z,12.59
2022-10-31T08:40:28.753Z,12.50
2022-10-31T08:43:31.282Z,12.52
2022-10-31T08:46:34.234Z,12.64
2022-10-31T08:49:37.012Z,12.74
2022-10-31T08:53:03.749Z,12.66
2022-10-31T08:56:02.935Z,12.71
2022-10-31T08:59:05.656Z,12.75
2022-10-31T09:02:09.605Z,12.87
2022-10-31T09:05:13.147Z,12.82
2022-10-31T09:08:17.190Z,12.84
2022-10-31T09:11:20.684Z,12.88
2022-10-31T09:14:38.279Z,12.91
2022-10-31T09:17:48.716Z,12.85
2022-10-31T09:20:52.057Z,12.82
2022-10-31T09:23:54.921Z,12.77
2022-10-31T09:26:59.759Z,12.87
2022-10-31T09:30:02.719Z,13.00
2022-10-31T09:33:10.622Z,12.78
2022-10-31T09:36:14.230Z,12.85
2022-10-31T09:39:16.718Z,12.78
2022-10-31T09:42:31.717Z,12.87
2022-10-31T09:45:45.388Z,12.87
2022-10-31T09:49:22.229Z,12.87
2022-10-31T09:52:34.422Z,12.95
2022-10-31T09:55:47.647Z,12.99
2022-10-31T09:59:11.520Z,12.98
2022-10-31T10:02:26.867Z,13.07
2022-10-31T10:05:41.614Z,12.96
2022-10-31T10:08:45.616Z,12.89
2022-10-31T10:12:07.555Z,12.98
2022-10-31T10:15:40.193Z,13.02
2022-10-31T10:18:55.999Z,13.00
2022-10-31T10:22:48.309Z,12.96
2022-10-31T10:26:00.164Z,13.04
2022-10-31T10:29:25.322Z,13.13
2022-10-31T10:32:30.579Z,13.21
2022-10-31T10:36:03.438Z,13.21
2022-10-31T10:39:17.738Z,13.34
2022-10-31T10:42:40.069Z,13.34
2022-10-31T10:46:07.873Z,13.35
2022-10-31T10:49:18.884Z,13.34
2022-10-31T10:52:50.204Z,13.27
2022-10-31T10:55:59.389Z,13.26
2022-10-31T10:59:03.418Z,13.37
2022-10-31T11:02:18.250Z,13.24
2022-10-31T11:05:29.194Z,13.25
2022-10-31T11:08:36.653Z,13.20
2022-10-31T11:11:39.847Z,13.29
2022-10-31T11:15:00.255Z,13.24
2022-10-31T11:18:03.323Z,13.25
2022-10-31T11:21:06.429Z,13.16
2022-10-31T11:24:12.238Z,13.20
2022-10-31T11:27:22.205Z,13.29
2022-10-31T11:30:25.049Z,13.32
2022-10-31T11:33:33.247Z,13.33
2022-10-31T11:36:43.068Z,13.36
2022-10-31T11:39:54.379Z,13.32
2022-10-31T11:43:00.325Z,13.33
2022-10-31T11:46:12.168Z,13.41
2022-10-31T11:49:42.979Z,13.34
2022-10-31T11:52:45.668Z,13.19
2022-10-31T11:55:59.915Z,13.19
2022-10-31T11:59:05.196Z,13.24
2022-10-31T12:02:20.216Z,13.34
2022-10-31T12:05:30.162Z,13.22
2022-10-31T12:08:35.983Z,13.30
2022-10-31T12:12:04.824Z,13.24
2022-10-31T12:15:27.529Z,13.30
2022-10-31T12:18:43.835Z,13.24
2022-10-31T12:22:01.616Z,13.30
2022-10-31T12:25:22.765Z,13.27
2022-10-31T12:28:46.317Z,13.20
2022-10-31T12:32:17.118Z,13.18
2022-10-31T12:35:53.220Z,13.13
2022-10-31T12:39:20.903Z,13.17
2022-10-31T12:42:45.443Z,13.13
2022-10-31T12:45:59.674Z,13.13
2022-10-31T12:49:29.987Z,13.08
2022-10-31T12:52:35.139Z,13.05
2022-10-31T12:55:46.914Z,13.09
2022-10-31T12:58:56.320Z,13.12
2022-10-31T13:02:26.693Z,13.06
2022-10-31T13:05:37.159Z,13.05
2022-10-31T13:08:46.175Z,13.03
2022-10-31T13:12:00.709Z,13.00
2022-10-31T13:15:19.124Z,12.90
2022-10-31T13:18:34.134Z,12.81
2022-10-31T13:22:00.408Z,12.82
2022-10-31T13:25:10.261Z,12.89
2022-10-31T13:28:25.098Z,12.93
2022-10-31T13:31:28.503Z,12.84
2022-10-31T13:34:40.436Z,12.89
2022-10-31T13:37:54.514Z,12.77
2022-10-31T13:41:03.224Z,12.77
2022-10-31T13:44:11.970Z,12.73
2022-10-31T13:47:25.749Z,12.74
2022-10-31T13:50:31.230Z,12.48
2022-10-31T13:53:43.103Z,12.42
2022-10-31T13:56:50.442Z,12.46
2022-10-31T13:59:57.042Z,12.52
2022-10-31T14:02:59.984Z,12.55
2022-10-31T14:06:02.958Z,12.64
2022-10-31T14:09:05.873Z,12.55
2022-10-31T14:12:16.139Z,12.35
2022-10-31T14:15:26.211Z,12.36
2022-10-31T14:18:34.528Z,12.36
2022-10-31T14:21:43.237Z,12.32
2022-10-31T14:24:45.919Z,12.34
2022-10-31T14:27:48.401Z,12.36
2022-10-31T14:30:59.196Z,12.36
2022-10-31T14:34:05.510Z,12.39
2022-10-31T14:37:44.989Z,12.17
2022-10-31T14:41:03.416Z,12.31
2022-10-31T14:44:35.398Z,12.32
2022-10-31T14:47:51.282Z,12.25
2022-10-31T14:50:59.466Z,12.21
2022-10-31T14:54:03.490Z,12.15
2022-10-31T14:57:15.038Z,12.06
2022-10-31T15:00:21.442Z,12.06
2022-10-31T15:03:27.779Z,12.05
2022-10-31T15:06:37.583Z,12.00
2022-10-31T15:09:44.283Z,12.11
2022-10-31T15:12:46.759Z,12.04
2022-10-31T15:15:53.139Z,12.05
2022-10-31T15:19:13.691Z,12.13
2022-10-31T15:22:20.068Z,11.92
2022-10-31T15:25:24.875Z,11.85
2022-10-31T15:28:28.301Z,11.85
2022-10-31T15:31:32.128Z,11.86
2022-10-31T15:34:40.421Z,11.83
2022-10-31T15:37:43.063Z,11.75
2022-10-31T15:40:55.045Z,11.75
2022-10-31T15:44:03.545Z,11.83
2022-10-31T15:47:18.207Z,11.86
2022-10-31T15:50:43.702Z,11.91
2022-10-31T15:53:51.420Z,11.88
2022-10-31T15:56:53.864Z,11.84
2022-10-31T15:59:57.674Z,11.93
2022-10-31T16:03:15.025Z,11.94
2022-10-31T16:06:22.159Z,12.00
2022-10-31T16:09:25.238Z,11.95
2022-10-31T16:12:38.199Z,12.06
2022-10-31T16:16:08.802Z,11.95
2022-10-31T16:19:28.093Z,11.92
2022-10-31T16:22:34.436Z,11.94
2022-10-31T16:25:41.116Z,11.85
2022-10-31T16:28:53.448Z,11.89
2022-10-31T16:31:57.415Z,11.80
2022-10-31T16:35:02.216Z,11.72
2022-10-31T16:41:26.817Z,11.75
2022-10-31T16:44:29.667Z,11.70
2022-10-31T16:47:32.118Z,11.72
2022-10-31T16:50:34.979Z,11.80
2022-10-31T16:53:40.603Z,11.67
2022-10-31T16:56:45.574Z,11.65
2022-10-31T16:59:52.549Z,11.64
2022-10-31T17:02:57.682Z,11.54
2022-10-31T17:06:00.563Z,11.50
2022-10-31T17:09:03.674Z,11.64
2022-10-31T17:12:13.434Z,11.58
2022-10-31T17:15:23.434Z,11.51
2022-10-31T17:18:27.809Z,11.46
2022-10-31T17:21:31.017Z,11.37
2022-10-31T17:24:33.632Z,11.38
2022-10-31T17:27:36.556Z,11.44
2022-10-31T17:30:40.255Z,11.36
2022-10-31T17:33:43.284Z,11.31
2022-10-31T17:36:51.584Z,11.36
2022-10-31T17:39:54.586Z,11.41
2022-10-31T17:42:58.217Z,11.33
2022-10-31T17:46:01.584Z,11.31
2022-10-31T17:49:07.011Z,11.29
2022-10-31T17:52:09.923Z,11.20
2022-10-31T17:55:13.405Z,11.24
2022-10-31T17:58:17.452Z,11.18
2022-10-31T18:01:20.284Z,11.15
2022-10-31T18:04:23.465Z,11.15
2022-10-31T18:07:26.184Z,11.11
2022-10-31T18:10:29.482Z,11.19
2022-10-31T18:13:32.431Z,11.17
2022-10-31T18:19:39.391Z,11.17
2022-10-31T18:22:42.335Z,11.21
2022-10-31T18:25:48.110Z,11.07
2022-10-31T18:28:51.870Z,11.06
2022-10-31T18:31:55.288Z,11.13
2022-10-31T18:34:58.187Z,11.01
2022-10-31T18:38:03.223Z,11.03
2022-10-31T18:41:07.328Z,11.08
2022-10-31T18:44:10.291Z,11.03
2022-10-31T18:47:13.481Z,11.05
2022-10-31T18:50:16.505Z,11.03
2022-10-31T18:53:20.815Z,10.93
2022-10-31T18:56:25.046Z,10.93
2022-10-31T18:59:28.657Z,11.04
2022-10-31T19:02:31.734Z,11.04
2022-10-31T19:05:34.846Z,11.09
2022-10-31T19:08:39.622Z,11.09
2022-10-31T19:11:42.878Z,11.13
2022-10-31T19:14:46.098Z,11.13
2022-10-31T19:17:49.483Z,11.12
2022-10-31T19:20:52.158Z,11.07
2022-10-31T19:23:56.452Z,11.13
2022-10-31T19:27:00.681Z,11.12
2022-10-31T19:30:06.366Z,11.07
2022-10-31T19:33:09.524Z,11.07
2022-10-31T19:36:18.770Z,10.95
2022-10-31T19:39:21.775Z,10.92
2022-10-31T19:42:25.184Z,10.91
2022-10-31T19:45:27.844Z,10.92
2022-10-31T19:48:36.573Z,10.89
2022-10-31T19:51:39.890Z,10.92
2022-10-31T19:54:42.808Z,10.91
2022-10-31T19:58:11.934Z,10.88
2022-10-31T20:01:09.629Z,10.88
2022-10-31T20:04:12.986Z,10.88
2022-10-31T20:07:16.022Z,10.91
2022-10-31T20:10:19.994Z,10.90
2022-10-31T20:13:23.762Z,10.96
2022-10-31T20:16:27.921Z,10.90
2022-10-31T20:19:31.065Z,10.92
2022-10-31T20:22:36.130Z,10.91
2022-10-31T20:25:50.184Z,10.89
2022-10-31T20:28:55.791Z,10.87
2022-10-31T20:31:58.541Z,10.83
2022-10-31T20:35:01.560Z,10.84
2022-10-31T20:38:05.339Z,10.98
2022-10-31T20:41:10.941Z,10.97
2022-10-31T20:44:13.649Z,10.86
2022-10-31T20:47:19.389Z,10.86
2022-10-31T20:50:25.666Z,10.90
2022-10-31T20:53:29.380Z,10.86
2022-10-31T20:56:32.180Z,10.94
2022-10-31T20:59:35.374Z,10.84
2022-10-31T21:02:42.333Z,10.94
2022-10-31T21:05:56.070Z,10.89
2022-10-31T21:08:58.664Z,10.84
2022-10-31T21:12:01.435Z,10.80
2022-10-31T21:15:04.320Z,10.83
2022-10-31T21:18:07.436Z,10.82
2022-10-31T21:21:12.637Z,10.84
2022-10-31T21:27:20.251Z,10.79
2022-10-31T21:30:22.977Z,10.77
2022-10-31T21:33:25.781Z,10.73
2022-10-31T21:36:28.539Z,10.82
2022-10-31T21:39:31.060Z,10.75
2022-10-31T21:42:34.029Z,10.82
2022-10-31T21:45:36.519Z,10.76
2022-10-31T21:48:44.089Z,10.73
2022-10-31T21:51:47.577Z,10.72
2022-10-31T21:54:50.351Z,10.71
2022-10-31T21:57:52.756Z,10.75
2022-10-31T22:00:55.531Z,10.76
2022-10-31T22:03:58.641Z,10.75
2022-10-31T22:07:01.100Z,10.77
2022-10-31T22:10:04.117Z,10.78
2022-10-31T22:13:06.615Z,10.79
2022-10-31T22:16:12.015Z,10.85
2022-10-31T22:19:14.747Z,10.76
2022-10-31T22:22:17.562Z,10.81
2022-10-31T22:25:20.028Z,10.72
2022-10-31T22:28:23.144Z,10.66
2022-10-31T22:31:27.130Z,10.71
2022-10-31T22:34:29.902Z,10.67
2022-10-31T22:37:32.317Z,10.70
2022-10-31T22:40:35.000Z,10.66
2022-10-31T22:43:37.608Z,10.66
2022-10-31T22:46:40.357Z,10.63
2022-10-31T22:49:43.819Z,10.66
2022-10-31T22:52:46.541Z,10.67
2022-10-31T22:55:52.017Z,10.64
2022-10-31T22:58:55.045Z,10.74
2022-10-31T23:01:57.720Z,10.64
2022-10-31T23:05:00.577Z,10.61
2022-10-31T23:08:03.682Z,10.54
2022-10-31T23:11:34.569Z,10.54
2022-10-31T23:14:37.022Z,10.53
2022-10-31T23:17:39.769Z,10.54
2022-10-31T23:20:42.977Z,10.61
2022-10-31T23:23:45.687Z,10.59
2022-10-31T23:27:09.095Z,10.52
2022-10-31T23:30:12.045Z,10.55
2022-10-31T23:33:14.474Z,10.47
2022-10-31T23:36:17.215Z,10.58
2022-10-31T23:39:24.154Z,10.51
2022-10-31T23:42:28.819Z,10.53
2022-10-31T23:45:31.340Z,10.49
2022-10-31T23:48:34.171Z,10.51
2022-10-31T23:51:37.526Z,10.53
2022-10-31T23:54:40.569Z,10.50
2022-10-31T23:57:43.103Z,10.54
